Time;durP1;ratioP1;P1;durP2;ratioP2;P2;SDS_P1;SDS_P2;PMS_P1;PMS_P2;Temp;Humidity;BMP_temperature;BMP_pressure;BME280_temperature;BME280_humidity;BME280_pressure;Samples;Min_cycle;Max_cycle;Signal;HPM_P1;HPM_P2
2021/10/25 00:00:11;;;;;;;8.65;6.03;;;;;;;8.82;100.00;101760.34;5073412;28;20054;-30
2021/10/25 00:02:40;;;;;;;12.63;8.07;;;;;;;8.81;100.00;101756.72;5074151;28;20068;-32
2021/10/25 00:05:09;;;;;;;13.77;7.65;;;;;;;8.80;100.00;101748.66;5073048;28;20084;-37
2021/10/25 00:07:36;;;;;;;13.15;7.68;;;;;;;8.79;100.00;101749.78;5073384;28;20045;-31
2021/10/25 00:10:06;;;;;;;13.18;8.13;;;;;;;8.78;100.00;101756.44;5073622;28;20052;-31
2021/10/25 00:12:34;;;;;;;13.30;8.15;;;;;;;8.79;100.00;101755.34;5073033;28;20044;-36
2021/10/25 00:15:02;;;;;;;13.95;8.35;;;;;;;8.81;100.00;101761.47;5073382;28;20072;-36
2021/10/25 00:17:30;;;;;;;13.75;7.63;;;;;;;8.82;100.00;101752.84;5073564;28;20064;-37
2021/10/25 00:19:59;;;;;;;10.85;7.88;;;;;;;8.83;100.00;101751.75;5072715;28;20040;-36
2021/10/25 00:22:26;;;;;;;12.32;8.07;;;;;;;8.84;100.00;101753.41;5073282;28;20051;-35
2021/10/25 00:24:55;;;;;;;11.77;7.80;;;;;;;8.86;100.00;101750.38;5071564;28;20047;-34
2021/10/25 00:27:23;;;;;;;15.90;8.60;;;;;;;8.87;100.00;101752.06;5073757;28;20064;-32
2021/10/25 00:29:53;;;;;;;11.80;7.88;;;;;;;8.89;100.00;101747.06;5073272;28;20040;-34
2021/10/25 00:32:20;;;;;;;16.35;9.70;;;;;;;8.91;100.00;101753.22;5072939;28;20060;-32
2021/10/25 00:34:48;;;;;;;13.43;8.43;;;;;;;8.95;100.00;101744.06;5072852;28;20053;-34
2021/10/25 00:37:18;;;;;;;14.52;9.23;;;;;;;8.99;100.00;101738.81;5072970;28;20037;-34
2021/10/25 00:39:45;;;;;;;13.93;9.00;;;;;;;9.02;100.00;101743.81;5070848;28;20056;-32
2021/10/25 00:42:13;;;;;;;15.13;8.80;;;;;;;9.06;100.00;101733.00;5073250;28;20044;-33
2021/10/25 00:44:41;;;;;;;11.52;8.63;;;;;;;9.10;100.00;101740.53;5071436;28;20051;-35
2021/10/25 00:47:09;;;;;;;14.48;8.68;;;;;;;9.11;100.00;101739.44;5072212;28;20075;-33
2021/10/25 00:49:37;;;;;;;13.18;9.18;;;;;;;9.11;100.00;101739.44;5071627;28;20075;-33
2021/10/25 00:52:05;;;;;;;14.32;8.85;;;;;;;9.12;100.00;101743.91;5073100;28;20044;-36
2021/10/25 00:54:36;;;;;;;14.38;9.23;;;;;;;9.13;100.00;101730.81;5072414;28;20032;-37
2021/10/25 00:57:04;;;;;;;14.63;9.48;;;;;;;9.14;100.00;101732.50;5071424;28;20045;-35
2021/10/25 00:59:33;;;;;;;14.07;9.40;;;;;;;9.14;100.00;101722.19;5072666;28;20086;-33
2021/10/25 01:02:00;;;;;;;12.77;8.95;;;;;;;9.13;100.00;101726.09;5071863;28;20047;-29
2021/10/25 01:04:29;;;;;;;16.65;9.88;;;;;;;9.11;100.00;101719.94;5072288;28;20037;-31
2021/10/25 01:06:57;;;;;;;13.73;9.85;;;;;;;9.08;100.00;101723.25;5072744;28;20050;-34
2021/10/25 01:09:25;;;;;;;12.80;9.13;;;;;;;9.07;100.00;101716.03;5071694;28;20434;-36
2021/10/25 01:11:55;;;;;;;15.00;9.45;;;;;;;9.07;100.00;101720.75;5072282;28;20139;-32
2021/10/25 01:14:23;;;;;;;13.52;9.55;;;;;;;9.03;100.00;101717.66;5069947;28;20586;-37
2021/10/25 01:16:52;;;;;;;14.70;9.05;;;;;;;9.04;100.00;101718.50;5071089;28;20126;-33
2021/10/25 01:19:20;;;;;;;12.75;8.65;;;;;;;8.99;100.00;101719.31;5072412;28;20101;-32
2021/10/25 01:21:49;;;;;;;16.65;10.02;;;;;;;8.99;100.00;101722.91;5069355;28;20102;-36
2021/10/25 01:24:17;;;;;;;14.00;9.85;;;;;;;8.95;100.00;101715.38;5071155;28;20809;-36
2021/10/25 01:26:44;;;;;;;14.10;9.73;;;;;;;8.94;100.00;101719.28;5071724;28;20490;-38
2021/10/25 01:29:12;;;;;;;14.25;9.15;;;;;;;8.92;100.00;101715.91;5071660;28;20068;-32
2021/10/25 01:31:40;;;;;;;13.40;9.63;;;;;;;8.90;100.00;101704.22;5070369;28;20044;-33
2021/10/25 01:34:10;;;;;;;14.45;10.07;;;;;;;8.87;100.00;101704.75;5070878;28;20052;-34
2021/10/25 01:36:38;;;;;;;22.00;11.95;;;;;;;8.85;100.00;101706.94;5069693;28;20048;-35
2021/10/25 01:39:07;;;;;;;13.52;9.75;;;;;;;8.84;100.00;101708.06;5070518;28;20045;-37
2021/10/25 01:41:35;;;;;;;13.35;9.50;;;;;;;8.83;100.00;101704.44;5071702;28;20052;-35
2021/10/25 01:44:11;;;;;;;14.40;9.85;;;;;;;8.84;100.00;101702.50;5070015;28;20059;-32
2021/10/25 01:46:38;;;;;;;14.35;9.45;;;;;;;8.84;100.00;101705.28;5070540;28;20536;-32
2021/10/25 01:49:06;;;;;;;17.38;11.48;;;;;;;8.84;100.00;101700.53;5070025;28;20048;-34
2021/10/25 01:51:35;;;;;;;13.35;9.93;;;;;;;8.85;100.00;101698.59;5069701;28;20048;-38
2021/10/25 01:54:04;;;;;;;17.00;11.27;;;;;;;8.85;100.00;101696.66;5070132;28;20045;-35
2021/10/25 01:56:37;;;;;;;14.65;10.00;;;;;;;8.88;100.00;101701.69;5069346;28;20391;-35
2021/10/25 01:59:06;;;;;;;16.35;11.07;;;;;;;8.89;100.00;101697.81;5071570;28;20052;-36
2021/10/25 02:01:34;;;;;;;16.60;11.43;;;;;;;8.93;100.00;101703.69;5069973;28;20076;-31
2021/10/25 02:04:03;;;;;;;14.38;10.77;;;;;;;8.95;100.00;101695.91;5069487;28;20071;-32
2021/10/25 02:06:31;;;;;;;14.20;10.65;;;;;;;8.98;100.00;101693.44;5069903;28;20087;-32
2021/10/25 02:08:59;;;;;;;14.02;9.77;;;;;;;9.02;100.00;101690.91;5069608;28;20061;-36
2021/10/25 02:11:30;;;;;;;16.27;10.52;;;;;;;8.99;100.00;101691.50;5069495;28;20049;-32
2021/10/25 02:14:04;;;;;;;14.00;9.90;;;;;;;9.00;100.00;101690.34;5070068;28;20051;-35
2021/10/25 02:16:32;;;;;;;14.43;9.85;;;;;;;9.02;100.00;101690.09;5069883;28;20178;-37
2021/10/25 02:19:00;;;;;;;14.98;10.07;;;;;;;9.02;100.00;101685.34;5069323;28;20101;-37
2021/10/25 02:21:42;;;;;;;12.32;10.07;;;;;;;9.04;100.00;101687.88;5069955;28;20076;-33
2021/10/25 02:24:11;;;;;;;13.93;9.23;;;;;;;9.05;100.00;101683.97;5070132;28;20052;-35
2021/10/25 02:26:41;;;;;;;17.20;11.93;;;;;;;9.08;100.00;101684.28;5068510;28;20080;-37
2021/10/25 02:29:11;;;;;;;14.50;10.05;;;;;;;9.09;100.00;101690.69;5069572;28;20090;-36
2021/10/25 02:31:39;;;;;;;14.38;10.23;;;;;;;9.13;100.00;101687.13;5069269;28;20056;-37
2021/10/25 02:34:07;;;;;;;14.63;10.38;;;;;;;9.13;100.00;101686.28;5071131;28;20048;-36
2021/10/25 02:36:35;;;;;;;18.17;10.90;;;;;;;9.15;100.00;101689.63;5070068;28;20040;-40
2021/10/25 02:39:11;;;;;;;15.23;10.05;;;;;;;9.15;100.00;101693.25;5068949;28;20071;-33
2021/10/25 02:41:42;;;;;;;14.32;9.02;;;;;;;9.17;100.00;101688.25;5069931;28;20230;-32
2021/10/25 02:44:13;;;;;;;16.55;10.85;;;;;;;9.20;100.00;101686.84;5070698;28;20040;-32
2021/10/25 02:46:40;;;;;;;15.15;9.52;;;;;;;9.21;100.00;101689.38;5058045;28;20506;-32
2021/10/25 02:49:08;;;;;;;17.05;10.88;;;;;;;9.21;100.00;101677.38;5069175;28;20049;-33
2021/10/25 02:51:36;;;;;;;13.23;9.68;;;;;;;9.21;100.00;101685.75;5069708;28;20045;-31
2021/10/25 02:54:04;;;;;;;14.95;9.68;;;;;;;9.18;100.00;101678.78;5068784;28;20076;-38
2021/10/25 02:56:45;;;;;;;14.20;10.05;;;;;;;9.17;100.00;101670.72;5067662;28;20049;-35
2021/10/25 02:59:14;;;;;;;14.23;10.45;;;;;;;9.18;100.00;101676.00;5070514;28;20055;-33
2021/10/25 03:01:42;;;;;;;15.77;10.68;;;;;;;9.16;100.00;101675.44;5068921;28;20409;-34
2021/10/25 03:04:12;;;;;;;15.10;10.52;;;;;;;9.16;100.00;101672.66;5069555;28;20080;-34
2021/10/25 03:06:40;;;;;;;15.00;9.27;;;;;;;9.18;100.00;101676.00;5070188;28;20036;-37
2021/10/25 03:09:09;;;;;;;16.65;9.98;;;;;;;9.21;100.00;101669.03;5070218;28;20119;-34
2021/10/25 03:11:39;;;;;;;14.65;10.40;;;;;;;9.21;100.00;101666.25;5069278;28;20577;-34
2021/10/25 03:14:07;;;;;;;15.23;10.15;;;;;;;9.19;100.00;101666.50;5070188;28;20131;-33
2021/10/25 03:16:52;;;;;;;13.65;10.13;;;;;;;9.22;100.00;101667.94;5069133;28;20059;-37
2021/10/25 03:19:19;;;;;;;13.40;10.23;;;;;;;9.22;100.00;101670.72;5069391;28;20041;-30
2021/10/25 03:21:47;;;;;;;18.45;10.40;;;;;;;9.23;100.00;101664.88;5069738;28;20502;-31
2021/10/25 03:24:15;;;;;;;13.55;9.60;;;;;;;9.25;100.00;101659.88;5068993;28;20044;-38
2021/10/25 03:26:44;;;;;;;15.43;10.23;;;;;;;9.27;100.00;101656.81;5069248;28;20505;-34
2021/10/25 03:29:12;;;;;;;13.88;9.63;;;;;;;9.28;100.00;101644.56;5068891;28;20455;-35
2021/10/25 03:31:41;;;;;;;11.25;8.80;;;;;;;9.29;100.00;101663.81;5069101;28;20049;-34
2021/10/25 03:34:11;;;;;;;14.52;10.00;;;;;;;9.31;100.00;101664.38;5070232;28;20052;-32
2021/10/25 03:36:43;;;;;;;14.50;8.87;;;;;;;9.32;100.00;101660.47;5069148;28;20155;-32
2021/10/25 03:39:11;;;;;;;12.25;8.93;;;;;;;9.35;100.00;101656.31;5073772;28;20048;-34
2021/10/25 03:41:46;;;;;;;16.55;10.20;;;;;;;9.37;100.00;101656.03;5072650;28;20052;-37
2021/10/25 03:44:16;;;;;;;11.43;8.48;;;;;;;9.41;100.00;101657.16;5074073;28;20416;-34
2021/10/25 03:46:48;;;;;;;13.90;8.75;;;;;;;9.41;100.00;101646.00;5072428;28;20083;-37
2021/10/25 03:49:23;;;;;;;14.57;9.45;;;;;;;9.43;100.00;101649.38;5072229;28;20052;-35
2021/10/25 03:52:23;;;;;;;14.32;9.98;;;;;;;9.45;100.00;101649.94;5073411;28;20110;-34
2021/10/25 03:54:57;;;;;;;13.90;9.10;;;;;;;9.47;100.00;101650.50;5072692;28;20461;-37
2021/10/25 03:57:51;;;;;;;12.60;8.88;;;;;;;9.47;100.00;101654.13;5073094;28;20041;-32
2021/10/25 04:00:42;;;;;;;13.93;9.13;;;;;;;9.48;100.00;101650.22;5071971;28;20055;-34
2021/10/25 04:26:21;;;;;;;15.23;9.68;;;;;;;9.57;100.00;101639.41;5072685;28;20410;-35
2021/10/25 04:28:48;;;;;;;15.73;10.15;;;;;;;9.56;100.00;101638.56;5072347;28;20048;-36
2021/10/25 04:31:17;;;;;;;12.63;9.90;;;;;;;9.59;100.00;101642.75;5071296;28;20083;-35
2021/10/25 04:33:59;;;;;;;12.40;8.73;;;;;;;9.57;100.00;101645.81;5072055;28;20076;-37
2021/10/25 04:36:47;;;;;;;13.43;10.27;;;;;;;9.58;100.00;101644.72;5049407;28;20454;-35
2021/10/25 04:39:22;;;;;;;12.40;9.25;;;;;;;9.62;100.00;101636.63;5071402;28;20052;-34
2021/10/25 04:41:50;;;;;;;14.15;8.68;;;;;;;9.68;100.00;101638.31;5058440;28;20070;-30
2021/10/25 04:44:18;;;;;;;14.05;10.40;;;;;;;9.73;100.00;101632.78;5069913;28;20032;-35
2021/10/25 04:46:45;;;;;;;17.08;11.85;;;;;;;9.81;100.00;101625.78;5070607;28;20532;-34
2021/10/25 04:49:13;;;;;;;13.57;9.60;;;;;;;9.86;100.00;101615.50;5070202;28;20563;-32
2021/10/25 04:51:54;;;;;;;17.27;11.90;;;;;;;9.92;100.00;101624.72;5071607;28;20048;-31
2021/10/25 04:54:27;;;;;;;17.75;11.30;;;;;;;9.98;100.00;101635.63;5070825;28;20052;-31
2021/10/25 04:56:55;;;;;;;16.67;11.98;;;;;;;10.03;100.00;101624.44;5071381;28;20044;-31
2021/10/25 04:59:23;;;;;;;18.08;12.48;;;;;;;10.08;100.00;101625.56;5071679;28;20037;-33
2021/10/25 05:01:51;;;;;;;19.95;12.73;;;;;;;10.12;100.00;101621.97;5070834;28;20098;-34
2021/10/25 05:04:20;;;;;;;16.80;12.20;;;;;;;10.16;100.00;101627.81;5071206;28;20135;-38
2021/10/25 05:06:48;;;;;;;14.35;10.98;;;;;;;10.19;100.00;101621.72;5072050;28;20048;-34
2021/10/25 05:09:16;;;;;;;20.20;13.27;;;;;;;10.21;100.00;101619.47;5070734;28;20057;-32
2021/10/25 05:11:46;;;;;;;17.45;13.15;;;;;;;10.24;100.00;101614.19;5071220;28;20048;-30
2021/10/25 05:14:13;;;;;;;19.17;13.50;;;;;;;10.27;100.00;101610.00;5070649;28;20132;-35
2021/10/25 05:16:42;;;;;;;18.27;13.07;;;;;;;10.29;100.00;101613.34;5070798;28;20113;-37
2021/10/25 05:19:10;;;;;;;17.30;13.02;;;;;;;10.30;100.00;101612.22;5071922;28;20049;-32
2021/10/25 05:21:43;;;;;;;18.80;13.40;;;;;;;10.31;100.00;101609.16;5070628;28;20070;-35
2021/10/25 05:24:11;;;;;;;18.38;13.20;;;;;;;10.34;100.00;101610.56;5070486;28;20459;-35
2021/10/25 05:26:39;;;;;;;18.90;13.90;;;;;;;10.37;100.00;101617.53;5072639;28;20048;-34
2021/10/25 05:29:08;;;;;;;17.52;13.52;;;;;;;10.39;100.00;101615.31;5071211;28;20044;-36
2021/10/25 05:31:38;;;;;;;20.07;13.73;;;;;;;10.40;100.00;101609.44;5070346;28;20076;-33
2021/10/25 05:34:09;;;;;;;16.98;11.68;;;;;;;10.44;100.00;101612.50;5070531;28;20451;-30
2021/10/25 05:36:37;;;;;;;18.50;12.38;;;;;;;10.45;100.00;101615.00;5069924;28;20139;-32
2021/10/25 05:39:08;;;;;;;21.77;15.20;;;;;;;10.46;100.00;101613.91;5070305;28;20048;-34
2021/10/25 05:41:37;;;;;;;21.13;15.00;;;;;;;10.49;100.00;101618.09;5071059;28;20517;-35
2021/10/25 05:44:05;;;;;;;21.42;15.50;;;;;;;10.50;100.00;101617.81;5071810;28;20052;-32
2021/10/25 05:46:34;;;;;;;21.58;15.60;;;;;;;10.50;100.00;101616.97;5070695;28;20064;-30
2021/10/25 05:49:02;;;;;;;18.67;14.88;;;;;;;10.50;100.00;101617.81;5056294;28;20131;-33
2021/10/25 05:51:30;;;;;;;23.10;16.02;;;;;;;10.51;100.00;101605.53;5070178;28;20076;-39
2021/10/25 05:53:59;;;;;;;24.73;17.40;;;;;;;10.50;100.00;101611.38;5071520;28;20102;-32
2021/10/25 05:56:29;;;;;;;23.83;16.20;;;;;;;10.47;100.00;101610.00;5069406;28;20090;-33
2021/10/25 05:58:57;;;;;;;22.65;15.07;;;;;;;10.44;100.00;101607.75;5069873;28;20145;-35
2021/10/25 06:01:29;;;;;;;24.90;16.17;;;;;;;10.41;100.00;101616.69;5069899;28;20494;-39
2021/10/25 06:04:04;;;;;;;23.20;16.40;;;;;;;10.41;100.00;101613.06;5069904;28;20048;-36
2021/10/25 06:06:33;;;;;;;23.70;16.10;;;;;;;10.38;100.00;101611.69;5067356;28;20056;-32
2021/10/25 06:09:04;;;;;;;22.13;15.18;;;;;;;10.39;100.00;101606.94;5071303;28;20059;-34
2021/10/25 06:11:34;;;;;;;20.08;15.80;;;;;;;10.41;100.00;101613.06;5069389;28;20056;-30
2021/10/25 06:14:04;;;;;;;21.38;15.07;;;;;;;10.43;100.00;101616.41;5069972;28;20048;-30
2021/10/25 06:16:39;;;;;;;21.50;16.17;;;;;;;10.42;100.00;101607.19;5069357;28;20044;-33
2021/10/25 06:19:15;;;;;;;24.20;14.90;;;;;;;10.45;100.00;101603.00;5069675;28;20056;-30
2021/10/25 06:21:43;;;;;;;20.92;15.63;;;;;;;10.46;100.00;101605.53;5069176;28;20121;-37
2021/10/25 06:24:18;;;;;;;27.52;19.70;;;;;;;10.49;100.00;101606.91;5069253;28;20110;-36
2021/10/25 06:27:00;;;;;;;22.95;16.65;;;;;;;10.49;100.00;101612.50;5069497;28;20048;-36
2021/10/25 06:29:28;;;;;;;22.48;16.77;;;;;;;10.50;100.00;101612.22;5070474;28;20052;-32
2021/10/25 06:31:56;;;;;;;25.77;18.02;;;;;;;10.52;100.00;101621.16;5068674;28;20048;-35
2021/10/25 06:34:34;;;;;;;31.45;19.70;;;;;;;10.53;100.00;101625.63;5069462;28;20040;-32
2021/10/25 06:37:23;;;;;;;24.95;16.73;;;;;;;10.52;100.00;101625.91;5069500;28;20397;-34
2021/10/25 06:40:03;;;;;;;19.65;14.32;;;;;;;10.56;100.00;101627.03;5069067;28;20048;-29
2021/10/25 06:42:31;;;;;;;28.75;17.98;;;;;;;10.58;100.00;101622.84;5068355;28;20106;-31
2021/10/25 06:45:13;;;;;;;25.83;16.80;;;;;;;10.59;100.00;101630.06;5068551;28;20131;-35
2021/10/25 06:47:44;;;;;;;27.55;18.92;;;;;;;10.61;100.00;101625.03;5068957;28;20048;-33
2021/10/25 06:50:16;;;;;;;25.90;17.80;;;;;;;10.66;100.00;101622.25;5069492;28;20053;-32
2021/10/25 06:52:48;;;;;;;24.65;16.50;;;;;;;10.68;100.00;101621.97;5070225;28;20080;-32
2021/10/25 06:55:17;;;;;;;23.55;16.35;;;;;;;10.70;100.00;101628.09;5069725;28;20106;-37
2021/10/25 06:57:50;;;;;;;25.45;17.50;;;;;;;10.72;100.00;101625.03;5069261;28;20098;-34
2021/10/25 07:00:25;;;;;;;24.00;17.60;;;;;;;10.74;100.00;101626.44;5068958;28;20044;-33
2021/10/25 07:02:53;;;;;;;28.58;20.42;;;;;;;10.77;100.00;101628.66;5070287;28;20049;-32
2021/10/25 07:05:29;;;;;;;31.88;21.77;;;;;;;10.81;100.00;101632.53;5069815;28;20044;-35
2021/10/25 07:07:57;;;;;;;26.25;18.45;;;;;;;10.83;100.00;101633.09;5070011;28;20051;-37
2021/10/25 07:10:27;;;;;;;26.10;16.67;;;;;;;10.87;100.00;101634.22;5069278;28;20052;-37
2021/10/25 07:13:15;;;;;;;26.88;19.33;;;;;;;10.90;100.00;101632.81;5071383;28;20484;-35
2021/10/25 07:15:47;;;;;;;24.48;17.92;;;;;;;10.95;100.00;101630.03;5073478;28;20059;-34
2021/10/25 07:18:20;;;;;;;19.80;14.70;;;;;;;10.99;100.00;101647.91;5073193;28;20491;-34
2021/10/25 07:21:08;;;;;;;25.65;18.80;;;;;;;11.01;100.00;101640.88;5052676;28;20498;-38
2021/10/25 08:01:31;;;;;;;21.60;16.05;;;;;;;11.53;100.00;101661.13;5073453;28;20127;-31
2021/10/25 08:06:50;;;;;;;23.75;17.33;;;;;;;11.56;100.00;101664.19;5071577;28;20291;-32
2021/10/25 08:09:37;;;;;;;25.00;17.92;;;;;;;11.60;100.00;101656.03;5071331;28;20053;-36
2021/10/25 08:12:14;;;;;;;27.27;17.98;;;;;;;11.64;100.00;101666.38;5069611;28;20040;-34
2021/10/25 08:14:47;;;;;;;23.10;17.27;;;;;;;11.66;100.00;101658.53;5072043;28;20066;-36
2021/10/25 08:17:19;;;;;;;28.15;19.00;;;;;;;11.70;100.00;101664.38;5057157;28;20478;-31
2021/10/25 08:19:50;;;;;;;30.80;19.50;;;;;;;11.72;100.00;101662.13;5071739;28;20040;-33
2021/10/25 08:22:17;;;;;;;22.17;17.40;;;;;;;11.76;100.00;101662.41;5072148;28;20685;-37
2021/10/25 08:24:51;;;;;;;29.45;19.30;;;;;;;11.78;100.00;101666.63;5069753;28;20052;-37
2021/10/25 08:27:29;;;;;;;26.33;17.85;;;;;;;11.81;100.00;101660.44;5071827;28;20054;-34
2021/10/25 08:29:59;;;;;;;24.33;15.88;;;;;;;11.84;100.00;101664.63;5072036;28;20048;-38
2021/10/25 08:32:57;;;;;;;23.35;17.65;;;;;;;11.86;100.00;101662.38;5071320;28;20648;-32
2021/10/25 08:35:39;;;;;;;23.17;16.42;;;;;;;11.87;100.00;101664.03;5073109;28;20047;-32
2021/10/25 08:40:59;;;;;;;29.13;17.70;;;;;;;11.92;100.00;101661.22;5072868;28;20047;-35
2021/10/25 08:43:29;;;;;;;28.17;17.83;;;;;;;11.97;100.00;101664.00;5071679;28;20440;-36
2021/10/25 08:46:01;;;;;;;25.48;17.15;;;;;;;12.00;100.00;101669.00;5070799;28;20102;-34
2021/10/25 08:48:30;;;;;;;22.83;15.63;;;;;;;12.02;100.00;101659.19;5071638;28;20159;-30
2021/10/25 08:50:58;;;;;;;24.10;15.63;;;;;;;12.07;100.00;101661.97;5071107;28;20041;-37
2021/10/25 08:53:26;;;;;;;26.00;15.85;;;;;;;12.12;100.00;101658.31;5070762;28;20062;-37
2021/10/25 08:55:57;;;;;;;23.23;17.33;;;;;;;12.19;100.00;101655.19;5071626;28;20559;-34
2021/10/25 08:58:44;;;;;;;24.10;15.82;;;;;;;12.28;100.00;101657.06;5067898;28;20533;-35
2021/10/25 09:01:24;;;;;;;24.77;15.23;;;;;;;12.36;100.00;101661.22;5072411;28;20470;-32
2021/10/25 09:04:24;;;;;;;22.55;15.98;;;;;;;12.37;100.00;101663.72;5059337;28;20056;-34
2021/10/25 09:07:01;;;;;;;21.00;14.25;;;;;;;12.41;100.00;101664.78;5070416;28;20036;-38
2021/10/25 09:09:31;;;;;;;20.77;15.10;;;;;;;12.44;100.00;101666.16;5071140;28;20100;-37
2021/10/25 09:12:05;;;;;;;21.08;13.70;;;;;;;12.48;100.00;101652.44;5070898;28;20060;-35
2021/10/25 09:14:45;;;;;;;20.88;12.93;;;;;;;12.52;100.00;101657.16;5061001;28;20071;-37
2021/10/25 09:17:16;;;;;;;21.25;13.05;;;;;;;12.57;100.00;101657.13;5070805;28;20049;-36
2021/10/25 09:20:03;;;;;;;18.20;13.65;;;;;;;12.64;100.00;101654.78;5070592;28;20486;-37
2021/10/25 09:22:31;;;;;;;19.88;15.45;;;;;;;12.71;100.00;101652.50;5071789;28;20055;-34
2021/10/25 09:25:00;;;;;;;22.48;13.70;;;;;;;12.80;100.00;101649.88;5070957;28;20053;-39
2021/10/25 09:27:40;;;;;;;18.40;12.98;;;;;;;12.89;100.00;101644.50;5070257;28;20044;-34
2021/10/25 09:30:16;;;;;;;17.90;12.68;;;;;;;12.95;100.00;101648.91;5060676;28;20048;-38
2021/10/25 09:32:45;;;;;;;18.65;11.45;;;;;;;12.97;100.00;101650.28;5070461;28;20091;-39
2021/10/25 09:35:42;;;;;;;17.17;11.40;;;;;;;13.01;100.00;101642.94;5063014;28;20118;-37
2021/10/25 09:38:24;;;;;;;18.05;12.43;;;;;;;13.10;100.00;101643.97;5070455;28;20055;-31
2021/10/25 09:49:10;;;;;;;20.00;11.27;;;;;;;13.23;100.00;101645.25;5037113;28;20045;-31
2021/10/25 09:51:52;;;;;;;18.05;10.38;;;;;;;13.29;100.00;101632.03;5070245;28;20059;-35
2021/10/25 09:54:22;;;;;;;22.27;11.18;;;;;;;13.32;100.00;101637.88;5070520;28;20094;-32
2021/10/25 09:57:03;;;;;;;12.93;8.47;;;;;;;13.39;100.00;101635.53;5069838;28;20064;-33
2021/10/25 09:59:52;;;;;;;17.27;10.05;;;;;;;13.47;100.00;101638.81;5065237;28;20053;-33
2021/10/25 10:02:31;;;;;;;13.77;9.57;;;;;;;13.54;100.00;101631.72;5057443;28;20128;-36
2021/10/25 10:05:03;;;;;;;16.98;9.57;;;;;;;13.64;100.00;101636.34;5070110;28;20080;-37
2021/10/25 10:07:35;;;;;;;15.77;9.23;;;;;;;13.74;100.00;101631.44;5069925;28;20516;-32
2021/10/25 10:10:16;;;;;;;14.70;9.90;;;;;;;13.80;100.00;101637.78;5069272;28;20059;-33
2021/10/25 10:12:52;;;;;;;13.48;9.20;;;;;;;13.86;100.00;101639.41;5056507;28;20601;-35
2021/10/25 10:15:27;;;;;;;16.80;9.70;;;;;;;13.88;100.00;101639.09;5069838;28;20044;-34
2021/10/25 10:18:00;;;;;;;13.77;8.77;;;;;;;13.96;100.00;101639.28;5069548;28;20076;-35
2021/10/25 10:20:52;;;;;;;15.43;9.43;;;;;;;14.09;100.00;101640.47;5070763;28;20441;-32
2021/10/25 10:23:22;;;;;;;16.95;9.75;;;;;;;14.35;100.00;101624.06;5069494;28;20048;-37
2021/10/25 10:25:54;;;;;;;16.80;9.00;;;;;;;14.58;100.00;101625.94;5069848;28;20048;-37
2021/10/25 10:28:37;;;;;;;15.50;8.77;;;;;;;14.88;100.00;101621.75;5056559;28;20658;-30
2021/10/25 10:31:09;;;;;;;13.60;8.68;;;;;;;14.98;100.00;101620.72;5069057;28;20143;-37
2021/10/25 10:33:49;;;;;;;13.40;8.27;;;;;;;14.93;100.00;101618.00;5069793;28;20493;-35
2021/10/25 10:36:21;;;;;;;13.23;8.38;;;;;;;14.88;100.00;101618.94;5069687;28;20047;-37
2021/10/25 10:39:11;;;;;;;11.95;7.55;;;;;;;14.83;100.00;101617.03;5069885;28;20340;-34
2021/10/25 10:42:01;;;;;;;13.65;7.43;;;;;;;14.83;100.00;101617.03;5070347;28;20089;-33
2021/10/25 10:44:58;;;;;;;11.30;6.88;;;;;;;14.87;100.00;101617.25;5067064;28;20139;-34
2021/10/25 10:47:36;;;;;;;15.05;6.95;;;;;;;14.86;100.00;101611.94;5068759;28;20045;-38
2021/10/25 10:50:17;;;;;;;12.95;7.10;;;;;;;14.83;100.00;101614.22;5070836;28;20143;-38
2021/10/25 10:52:47;;;;;;;15.82;7.90;;;;;;;14.91;100.00;101618.31;5070562;28;20044;-35
2021/10/25 10:55:20;;;;;;;10.43;6.63;;;;;;;15.11;100.00;101615.13;5070629;28;20059;-39
2021/10/25 11:00:39;;;;;;;14.57;6.50;;;;;;;15.16;100.00;101617.00;5070600;28;20040;-31
2021/10/25 11:03:22;;;;;;;13.95;6.88;;;;;;;15.24;100.00;101619.06;5070911;28;20053;-32
2021/10/25 11:05:59;;;;;;;13.93;6.93;;;;;;;15.31;100.00;101619.50;5069918;28;20044;-38
2021/10/25 11:08:30;;;;;;;14.68;7.00;;;;;;;15.22;100.00;101618.53;5070824;28;20045;-34
2021/10/25 11:11:02;;;;;;;12.90;6.28;;;;;;;15.11;100.00;101614.28;5070661;28;20048;-35
2021/10/25 11:13:32;;;;;;;12.98;6.05;;;;;;;15.09;100.00;101625.00;5070216;28;20059;-41
2021/10/25 11:16:06;;;;;;;13.35;7.40;;;;;;;15.00;100.00;101626.84;5070621;28;20116;-38
2021/10/25 11:18:36;;;;;;;15.82;6.40;;;;;;;14.98;100.00;101637.59;5070862;28;20413;-38
2021/10/25 11:21:12;;;;;;;17.30;7.50;;;;;;;14.99;100.00;101625.19;5069666;28;20067;-34
2021/10/25 11:23:43;;;;;;;11.05;6.20;;;;;;;15.09;100.00;101622.19;5070856;28;20055;-32
2021/10/25 11:26:18;;;;;;;12.93;5.57;;;;;;;15.27;100.00;101612.81;5068933;28;20143;-35
2021/10/25 11:29:04;;;;;;;13.35;5.43;;;;;;;15.51;100.00;101623.84;5070988;28;20044;-33
2021/10/25 11:31:34;;;;;;;16.13;6.82;;;;;;;15.65;100.00;101618.22;5068898;28;20048;-39
2021/10/25 11:34:03;;;;;;;11.43;5.65;;;;;;;15.71;100.00;101614.16;5070186;28;20044;-36
2021/10/25 11:36:33;;;;;;;14.20;7.72;;;;;;;15.64;100.00;101625.84;5070180;28;20140;-40
2021/10/25 11:39:08;;;;;;;15.35;8.60;;;;;;;15.53;100.00;101627.19;5067458;28;20044;-36
2021/10/25 11:41:47;;;;;;;15.90;7.72;;;;;;;15.45;100.00;101616.66;5069620;28;20080;-34
2021/10/25 11:44:15;;;;;;;15.60;8.02;;;;;;;15.38;100.00;101621.91;5068146;28;20498;-34
2021/10/25 11:46:44;;;;;;;14.85;8.52;;;;;;;15.35;100.00;101616.88;5070204;28;20127;-37
2021/10/25 11:49:12;;;;;;;17.20;9.93;;;;;;;15.27;100.00;101624.06;5069704;28;20045;-38
2021/10/25 11:51:48;;;;;;;18.92;9.77;;;;;;;15.24;100.00;101606.97;5070225;28;20532;-33
2021/10/25 11:54:16;;;;;;;18.75;9.73;;;;;;;15.23;100.00;101602.50;5069424;28;20044;-34
2021/10/25 11:56:52;;;;;;;12.25;8.45;;;;;;;15.24;100.00;101607.81;5070401;28;20051;-36
2021/10/25 11:59:21;;;;;;;15.57;9.38;;;;;;;15.16;100.00;101600.13;5072338;28;20048;-37
2021/10/25 12:01:50;;;;;;;13.85;8.27;;;;;;;15.17;100.00;101604.59;5073033;28;20051;-33
2021/10/25 12:04:19;;;;;;;13.40;8.20;;;;;;;15.22;100.00;101598.03;5072217;28;20048;-34
2021/10/25 12:06:58;;;;;;;13.98;8.55;;;;;;;15.30;100.00;101600.94;5073531;28;20056;-34
2021/10/25 12:09:33;;;;;;;13.50;8.02;;;;;;;15.34;100.00;101596.38;5072859;28;20069;-36
2021/10/25 12:12:05;;;;;;;16.70;9.15;;;;;;;15.38;100.00;101597.41;5073643;28;20056;-35
2021/10/25 12:14:37;;;;;;;13.93;8.57;;;;;;;15.44;100.00;101595.31;5073898;28;20508;-35
2021/10/25 12:17:05;;;;;;;16.25;9.77;;;;;;;15.45;100.00;101597.81;5072989;28;20410;-32
2021/10/25 12:19:33;;;;;;;17.02;9.65;;;;;;;15.45;100.00;101603.44;5073487;28;20048;-32
2021/10/25 12:22:10;;;;;;;16.75;9.00;;;;;;;15.46;100.00;101604.25;5073500;28;20045;-40
2021/10/25 12:24:39;;;;;;;14.50;8.30;;;;;;;15.44;100.00;101596.13;5072942;28;20051;-34
2021/10/25 12:27:08;;;;;;;13.23;7.80;;;;;;;15.43;100.00;101596.44;5073221;28;20045;-40
2021/10/25 12:29:36;;;;;;;15.10;8.63;;;;;;;15.40;100.00;101585.81;5072341;28;20060;-34
2021/10/25 12:32:11;;;;;;;11.85;8.18;;;;;;;15.38;100.00;101591.78;5072912;28;20497;-37
2021/10/25 12:34:55;;;;;;;18.52;9.88;;;;;;;15.29;100.00;101593.66;5072988;28;20383;-34
2021/10/25 12:37:26;;;;;;;14.70;8.80;;;;;;;15.18;100.00;101595.03;5069605;28;20048;-36
2021/10/25 12:39:55;;;;;;;20.73;9.40;;;;;;;15.10;100.00;101585.34;5073164;28;20425;-37
2021/10/25 12:42:24;;;;;;;13.90;8.68;;;;;;;15.07;100.00;101591.56;5072584;28;20045;-33
2021/10/25 12:44:54;;;;;;;14.02;8.73;;;;;;;15.08;100.00;101586.78;5072636;28;20040;-39
2021/10/25 12:47:26;;;;;;;19.08;10.52;;;;;;;15.07;100.00;101585.13;5072970;28;20551;-33
2021/10/25 12:49:55;;;;;;;15.52;10.13;;;;;;;15.08;100.00;101589.59;5069601;28;20040;-36